Time;durP1;ratioP1;P1;durP2;ratioP2;P2;SDS_P1;SDS_P2;PMS_P1;PMS_P2;Temp;Humidity;BMP_temperature;BMP_pressure;BME280_temperature;BME280_humidity;BME280_pressure;Samples;Min_cycle;Max_cycle;Signal;HPM_P1;HPM_P2
2024/01/08 00:01:17;;;;;;;3.05;2.78;;;;;;;;;;5113845;28;20271;-74
2024/01/08 00:03:44;;;;;;;2.45;2.38;;;;;;;;;;5114370;28;20247;-74
2024/01/08 00:06:10;;;;;;;2.40;2.30;;;;;;;;;;5113780;28;20227;-74
2024/01/08 00:08:37;;;;;;;2.58;2.47;;;;;;;;;;5114349;28;20226;-74
2024/01/08 00:11:03;;;;;;;2.25;2.17;;;;;;;;;;5113487;28;20203;-74
2024/01/08 00:13:29;;;;;;;2.65;2.55;;;;;;;;;;5113861;28;20195;-74
2024/01/08 00:15:55;;;;;;;2.00;2.00;;;;;;;;;;5113442;28;20276;-74
2024/01/08 00:18:22;;;;;;;2.55;2.45;;;;;;;;;;5113574;28;20228;-74
2024/01/08 00:20:50;;;;;;;2.63;2.42;;;;;;;;;;5113220;28;20709;-74
2024/01/08 00:23:16;;;;;;;2.65;2.47;;;;;;;;;;5113181;28;20222;-75
2024/01/08 00:25:42;;;;;;;2.17;2.17;;;;;;;;;;5113239;28;20222;-74
2024/01/08 00:28:08;;;;;;;1.98;1.90;;;;;;;;;;5113882;28;20225;-74
2024/01/08 00:30:35;;;;;;;2.40;2.30;;;;;;;;;;5113234;28;20199;-74
2024/01/08 00:33:01;;;;;;;1.92;1.92;;;;;;;;;;5113382;28;20191;-74
2024/01/08 00:35:27;;;;;;;2.53;2.38;;;;;;;;;;5113023;28;20229;-74
2024/01/08 00:37:55;;;;;;;2.25;2.17;;;;;;;;;;5113133;28;20267;-74
2024/01/08 00:40:21;;;;;;;2.15;2.05;;;;;;;;;;5113512;28;20408;-74
2024/01/08 00:42:48;;;;;;;2.33;2.22;;;;;;;;;;5113205;28;20393;-75
2024/01/08 00:45:14;;;;;;;2.00;2.00;;;;;;;;;;5115988;28;20245;-74
2024/01/08 00:47:40;;;;;;;2.25;2.15;;;;;;;;;;5128346;28;20228;-74
2024/01/08 00:50:09;;;;;;;2.45;2.25;;;;;;;;;;5129781;28;20199;-74
2024/01/08 00:52:36;;;;;;;2.47;2.38;;;;;;;;;;5130380;28;20263;-74
2024/01/08 00:55:04;;;;;;;1.77;1.77;;;;;;;;;;5130538;28;20229;-74
2024/01/08 00:57:31;;;;;;;2.17;2.17;;;;;;;;;;5129934;28;20203;-74
2024/01/08 00:59:57;;;;;;;2.22;2.13;;;;;;;;;;5129486;28;20207;-74
2024/01/08 01:02:23;;;;;;;2.17;2.17;;;;;;;;;;5129772;28;20207;-74
2024/01/08 01:04:49;;;;;;;2.30;2.20;;;;;;;;;;5129606;28;20199;-74
2024/01/08 01:07:16;;;;;;;2.40;2.30;;;;;;;;;;5128981;28;20252;-74
2024/01/08 01:09:42;;;;;;;2.35;2.25;;;;;;;;;;5130547;28;20229;-74
2024/01/08 01:12:10;;;;;;;2.42;2.30;;;;;;;;;;5129472;28;20224;-74
2024/01/08 01:14:36;;;;;;;2.47;2.38;;;;;;;;;;5118085;28;20275;-74
2024/01/08 01:17:03;;;;;;;2.28;2.28;;;;;;;;;;5114273;28;20229;-74
2024/01/08 01:19:29;;;;;;;2.03;1.92;;;;;;;;;;5121642;28;20203;-74
2024/01/08 01:21:56;;;;;;;2.20;2.10;;;;;;;;;;5123606;28;20206;-74
2024/01/08 01:24:22;;;;;;;2.40;2.30;;;;;;;;;;5118573;28;20230;-74
2024/01/08 01:26:48;;;;;;;2.38;2.28;;;;;;;;;;5118928;28;20219;-74
2024/01/08 01:29:16;;;;;;;2.00;2.00;;;;;;;;;;5113491;28;20206;-74
2024/01/08 01:31:43;;;;;;;2.63;2.53;;;;;;;;;;5113202;28;20203;-74
2024/01/08 01:34:10;;;;;;;2.83;2.63;;;;;;;;;;5112475;28;20207;-74
2024/01/08 01:36:37;;;;;;;2.45;2.35;;;;;;;;;;5113770;28;20319;-74
2024/01/08 01:39:03;;;;;;;2.60;2.50;;;;;;;;;;5112314;28;20734;-74
2024/01/08 01:41:29;;;;;;;2.65;2.55;;;;;;;;;;5109709;28;20222;-74
2024/01/08 01:43:55;;;;;;;2.42;2.33;;;;;;;;;;5109795;28;20219;-74
2024/01/08 01:46:26;;;;;;;2.83;2.40;;;;;;;;;;5109783;28;20214;-74
2024/01/08 01:48:53;;;;;;;2.45;2.42;;;;;;;;;;5108784;28;20199;-74
2024/01/08 01:51:19;;;;;;;2.38;2.28;;;;;;;;;;5108813;28;20293;-73
2024/01/08 01:53:46;;;;;;;2.38;2.28;;;;;;;;;;5109383;28;20236;-74
2024/01/08 01:56:12;;;;;;;2.55;2.45;;;;;;;;;;5111849;28;20312;-74
2024/01/08 01:58:39;;;;;;;2.53;2.33;;;;;;;;;;5112870;28;20279;-74
2024/01/08 02:01:05;;;;;;;2.55;2.35;;;;;;;;;;5112050;28;20260;-74
2024/01/08 02:03:33;;;;;;;2.50;2.40;;;;;;;;;;5111851;28;20219;-75
2024/01/08 02:05:59;;;;;;;2.40;2.30;;;;;;;;;;5112067;28;20227;-75
2024/01/08 02:08:26;;;;;;;2.80;2.70;;;;;;;;;;5112362;28;20199;-75
2024/01/08 02:10:53;;;;;;;2.33;2.30;;;;;;;;;;5112025;28;20478;-74
2024/01/08 02:13:19;;;;;;;2.40;2.30;;;;;;;;;;5113498;28;20232;-75
2024/01/08 02:15:45;;;;;;;2.88;2.67;;;;;;;;;;5115737;28;20215;-74
2024/01/08 02:18:11;;;;;;;2.65;2.50;;;;;;;;;;5115832;28;20233;-74
2024/01/08 02:20:39;;;;;;;2.42;2.33;;;;;;;;;;5115745;28;20211;-74
2024/01/08 02:23:07;;;;;;;2.92;2.70;;;;;;;;;;5115967;28;20223;-74
2024/01/08 02:25:33;;;;;;;2.58;2.45;;;;;;;;;;5116153;28;20227;-75
2024/01/08 02:27:59;;;;;;;2.42;2.42;;;;;;;;;;5116084;28;20596;-75
2024/01/08 02:30:25;;;;;;;2.85;2.65;;;;;;;;;;5115631;28;20548;-74
2024/01/08 02:32:52;;;;;;;2.90;2.80;;;;;;;;;;5115880;28;20604;-74
2024/01/08 02:35:18;;;;;;;2.60;2.50;;;;;;;;;;5116045;28;20226;-74
2024/01/08 02:37:44;;;;;;;3.00;2.90;;;;;;;;;;5115801;28;20203;-74
2024/01/08 02:40:12;;;;;;;2.78;2.67;;;;;;;;;;5115833;28;20207;-74
2024/01/08 02:42:40;;;;;;;2.63;2.53;;;;;;;;;;5115380;28;20716;-74
2024/01/08 02:45:06;;;;;;;2.97;2.88;;;;;;;;;;5115404;28;20309;-74
2024/01/08 02:47:37;;;;;;;2.58;2.47;;;;;;;;;;5115691;28;20207;-74
2024/01/08 02:50:03;;;;;;;3.05;2.85;;;;;;;;;;5115695;28;20199;-74
2024/01/08 02:52:29;;;;;;;2.83;2.72;;;;;;;;;;5115328;28;20256;-74
2024/01/08 02:54:56;;;;;;;2.90;2.80;;;;;;;;;;5114827;28;20256;-74
2024/01/08 02:57:23;;;;;;;2.80;2.70;;;;;;;;;;5115362;28;20199;-74
2024/01/08 02:59:49;;;;;;;3.05;2.95;;;;;;;;;;5115232;28;20199;-75
2024/01/08 03:02:16;;;;;;;2.90;2.80;;;;;;;;;;5115183;28;20206;-74
2024/01/08 03:04:42;;;;;;;3.08;2.88;;;;;;;;;;5115150;28;20248;-74
2024/01/08 03:07:08;;;;;;;2.97;2.70;;;;;;;;;;5115159;28;20239;-74
2024/01/08 03:09:34;;;;;;;3.47;3.25;;;;;;;;;;5115587;28;20592;-74
2024/01/08 03:12:01;;;;;;;3.58;3.47;;;;;;;;;;5114797;28;20624;-74
2024/01/08 03:14:28;;;;;;;3.05;2.95;;;;;;;;;;5115054;28;20240;-74
2024/01/08 03:16:54;;;;;;;5.60;2.80;;;;;;;;;;5114711;28;20226;-74
2024/01/08 03:19:21;;;;;;;3.13;2.92;;;;;;;;;;5114845;28;20195;-74
2024/01/08 03:21:47;;;;;;;3.25;3.05;;;;;;;;;;5114569;28;20644;-74
2024/01/08 03:24:13;;;;;;;3.33;3.13;;;;;;;;;;5113762;28;20219;-74
2024/01/08 03:26:39;;;;;;;3.17;2.97;;;;;;;;;;5114644;28;20222;-74
2024/01/08 03:29:06;;;;;;;3.45;2.83;;;;;;;;;;5114590;28;20252;-74
2024/01/08 03:31:33;;;;;;;3.25;3.15;;;;;;;;;;5114480;28;20199;-74
2024/01/08 03:34:00;;;;;;;3.17;2.97;;;;;;;;;;5114556;28;20199;-74
2024/01/08 03:36:26;;;;;;;3.03;2.92;;;;;;;;;;5114302;28;20238;-74
2024/01/08 03:38:52;;;;;;;3.38;3.20;;;;;;;;;;5114098;28;20237;-74
2024/01/08 03:41:18;;;;;;;3.22;3.03;;;;;;;;;;5114156;28;20260;-74
2024/01/08 03:43:44;;;;;;;3.15;3.05;;;;;;;;;;5114317;28;20288;-74
2024/01/08 03:46:11;;;;;;;3.28;3.17;;;;;;;;;;5114123;28;20226;-74
2024/01/08 03:48:39;;;;;;;3.40;3.30;;;;;;;;;;5114437;28;20199;-74
2024/01/08 03:51:05;;;;;;;3.00;2.90;;;;;;;;;;5114382;28;20207;-74
2024/01/08 03:53:31;;;;;;;3.15;2.97;;;;;;;;;;5114137;28;20244;-74
2024/01/08 03:55:57;;;;;;;3.38;3.17;;;;;;;;;;5113822;28;20706;-74
2024/01/08 03:58:24;;;;;;;3.10;2.97;;;;;;;;;;5113950;28;20206;-74
2024/01/08 04:00:50;;;;;;;3.35;3.08;;;;;;;;;;5113777;28;20198;-74
2024/01/08 04:03:16;;;;;;;3.08;2.97;;;;;;;;;;5113936;28;20219;-74
2024/01/08 04:05:44;;;;;;;2.63;2.53;;;;;;;;;;5113616;28;20223;-74
2024/01/08 04:08:10;;;;;;;2.83;2.72;;;;;;;;;;5113664;28;20663;-74
2024/01/08 04:10:37;;;;;;;2.88;2.70;;;;;;;;;;5113914;28;20596;-74
2024/01/08 04:13:04;;;;;;;2.80;2.70;;;;;;;;;;5114124;28;20199;-74
2024/01/08 04:15:30;;;;;;;2.85;2.65;;;;;;;;;;5113493;28;20224;-74
2024/01/08 04:17:56;;;;;;;3.28;3.08;;;;;;;;;;5113562;28;20241;-74
2024/01/08 04:20:22;;;;;;;3.47;3.28;;;;;;;;;;5113594;28;20720;-74
2024/01/08 04:22:50;;;;;;;2.70;2.60;;;;;;;;;;5113108;28;20206;-74
2024/01/08 04:25:17;;;;;;;2.60;2.50;;;;;;;;;;5113192;28;20223;-74
2024/01/08 04:27:43;;;;;;;2.88;2.67;;;;;;;;;;5113518;28;20617;-74
2024/01/08 04:30:10;;;;;;;2.45;2.20;;;;;;;;;;5113255;28;20686;-74
2024/01/08 04:32:36;;;;;;;3.05;2.70;;;;;;;;;;5115262;28;20207;-74
2024/01/08 04:35:03;;;;;;;2.35;2.20;;;;;;;;;;5122902;28;20221;-74
2024/01/08 04:37:29;;;;;;;2.97;2.65;;;;;;;;;;5117376;28;20694;-74
2024/01/08 04:39:56;;;;;;;2.40;2.30;;;;;;;;;;5113149;28;20209;-74
2024/01/08 04:42:23;;;;;;;2.75;2.65;;;;;;;;;;5113409;28;20260;-74
2024/01/08 04:44:49;;;;;;;2.60;2.50;;;;;;;;;;5112705;28;20281;-74
2024/01/08 04:47:16;;;;;;;2.50;2.30;;;;;;;;;;5112664;28;20272;-74
2024/01/08 04:49:42;;;;;;;2.63;2.53;;;;;;;;;;5112683;28;20206;-74
2024/01/08 04:52:08;;;;;;;2.97;2.78;;;;;;;;;;5113333;28;20207;-73
2024/01/08 04:54:34;;;;;;;2.90;2.70;;;;;;;;;;5113238;28;20252;-74
2024/01/08 04:57:02;;;;;;;2.67;2.58;;;;;;;;;;5112959;28;20219;-74
2024/01/08 04:59:29;;;;;;;3.45;2.50;;;;;;;;;;5112659;28;20199;-73
2024/01/08 05:01:55;;;;;;;2.80;2.60;;;;;;;;;;5112401;28;20195;-73
2024/01/08 05:04:21;;;;;;;2.38;2.28;;;;;;;;;;5112675;28;20272;-74
2024/01/08 05:06:47;;;;;;;2.72;2.53;;;;;;;;;;5112572;28;20223;-74
2024/01/08 05:09:14;;;;;;;2.90;2.80;;;;;;;;;;5112800;28;20205;-74
2024/01/08 05:11:40;;;;;;;2.53;2.42;;;;;;;;;;5112806;28;20202;-74
2024/01/08 05:14:08;;;;;;;2.85;2.67;;;;;;;;;;5112906;28;20195;-74
2024/01/08 05:16:35;;;;;;;3.13;2.92;;;;;;;;;;5112698;28;20223;-74
2024/01/08 05:19:01;;;;;;;2.70;2.60;;;;;;;;;;5112559;28;20195;-74
2024/01/08 05:21:27;;;;;;;2.83;2.63;;;;;;;;;;5112551;28;20240;-74
2024/01/08 05:23:53;;;;;;;2.95;2.72;;;;;;;;;;5112606;28;20276;-74
2024/01/08 05:26:20;;;;;;;2.65;2.55;;;;;;;;;;5112318;28;20272;-74
2024/01/08 05:28:46;;;;;;;3.15;2.78;;;;;;;;;;5112528;28;20260;-74
2024/01/08 05:31:14;;;;;;;2.80;2.70;;;;;;;;;;5112384;28;20207;-74
2024/01/08 05:33:40;;;;;;;4.65;3.00;;;;;;;;;;5112483;28;20260;-74
2024/01/08 05:36:06;;;;;;;2.95;2.85;;;;;;;;;;5111989;28;20222;-73
2024/01/08 05:38:33;;;;;;;2.78;2.67;;;;;;;;;;5112822;28;20267;-73
2024/01/08 05:41:00;;;;;;;3.10;2.95;;;;;;;;;;5112460;28;20199;-74
2024/01/08 05:43:26;;;;;;;3.03;2.92;;;;;;;;;;5112313;28;20714;-73
2024/01/08 05:45:53;;;;;;;2.67;2.58;;;;;;;;;;5111958;28;20635;-74
2024/01/08 05:48:21;;;;;;;2.80;2.70;;;;;;;;;;5114446;28;20195;-73
2024/01/08 05:50:47;;;;;;;2.97;2.78;;;;;;;;;;5116385;28;20207;-74
2024/01/08 05:53:14;;;;;;;3.30;3.10;;;;;;;;;;5116894;28;20260;-74
2024/01/08 05:55:40;;;;;;;3.40;3.10;;;;;;;;;;5116724;28;20309;-74
2024/01/08 05:58:06;;;;;;;3.08;2.88;;;;;;;;;;5116405;28;20282;-74
2024/01/08 06:00:32;;;;;;;2.88;2.78;;;;;;;;;;5116250;28;20203;-74
2024/01/08 06:02:58;;;;;;;3.17;2.88;;;;;;;;;;5116180;28;20255;-74
2024/01/08 06:05:26;;;;;;;3.05;2.95;;;;;;;;;;5116402;28;20227;-73
2024/01/08 06:07:52;;;;;;;3.13;2.95;;;;;;;;;;5116304;28;20214;-73
2024/01/08 06:10:19;;;;;;;3.05;2.95;;;;;;;;;;5116280;28;20203;-74
2024/01/08 06:12:45;;;;;;;4.05;3.05;;;;;;;;;;5116647;28;20286;-74
2024/01/08 06:15:11;;;;;;;3.22;3.03;;;;;;;;;;5116608;28;20226;-74
2024/01/08 06:17:38;;;;;;;3.03;2.92;;;;;;;;;;5116211;28;20237;-74
2024/01/08 06:20:05;;;;;;;3.42;3.22;;;;;;;;;;5115791;28;20571;-73
2024/01/08 06:22:32;;;;;;;3.45;3.28;;;;;;;;;;5115761;28;20213;-73
2024/01/08 06:24:59;;;;;;;3.20;2.90;;;;;;;;;;5115738;28;20636;-73
2024/01/08 06:27:25;;;;;;;3.10;3.00;;;;;;;;;;5115989;28;20647;-73
2024/01/08 06:29:51;;;;;;;3.10;2.90;;;;;;;;;;5115955;28;20615;-73
2024/01/08 06:32:17;;;;;;;3.42;3.20;;;;;;;;;;5115905;28;20740;-73
2024/01/08 06:34:44;;;;;;;3.33;3.22;;;;;;;;;;5115757;28;20571;-73
2024/01/08 06:37:10;;;;;;;3.22;3.13;;;;;;;;;;5116031;28;20200;-72
2024/01/08 06:39:38;;;;;;;3.38;3.17;;;;;;;;;;5115954;28;20676;-73
2024/01/08 06:42:04;;;;;;;3.92;3.20;;;;;;;;;;5115539;28;20203;-73
2024/01/08 06:44:31;;;;;;;3.05;2.95;;;;;;;;;;5115100;28;20223;-73
2024/01/08 06:46:57;;;;;;;3.20;3.00;;;;;;;;;;5115728;28;20238;-73
2024/01/08 06:49:23;;;;;;;3.13;2.92;;;;;;;;;;5115415;28;20194;-73
2024/01/08 06:51:49;;;;;;;3.35;3.15;;;;;;;;;;5115408;28;20221;-73
2024/01/08 06:54:16;;;;;;;3.83;3.53;;;;;;;;;;5115299;28;20253;-62
2024/01/08 06:56:43;;;;;;;3.42;3.22;;;;;;;;;;5114712;28;20275;-61
2024/01/08 06:59:09;;;;;;;3.67;3.47;;;;;;;;;;5114965;28;20252;-62
2024/01/08 07:01:36;;;;;;;3.45;3.25;;;;;;;;;;5115275;28;20207;-61
2024/01/08 07:04:02;;;;;;;4.43;3.47;;;;;;;;;;5115054;28;20215;-61
2024/01/08 07:06:28;;;;;;;4.22;3.40;;;;;;;;;;5114723;28;20643;-61
2024/01/08 07:08:55;;;;;;;3.05;2.85;;;;;;;;;;5114835;28;20203;-61
2024/01/08 07:11:22;;;;;;;2.83;2.72;;;;;;;;;;5114599;28;20252;-62
2024/01/08 07:13:50;;;;;;;3.05;2.85;;;;;;;;;;5114724;28;20199;-61
2024/01/08 07:16:16;;;;;;;3.67;3.47;;;;;;;;;;5114588;28;20305;-61
2024/01/08 07:18:42;;;;;;;3.22;3.03;;;;;;;;;;5114702;28;20327;-62
2024/01/08 07:21:09;;;;;;;3.60;3.40;;;;;;;;;;5114535;28;20244;-61
2024/01/08 07:23:36;;;;;;;2.80;2.70;;;;;;;;;;5114434;28;20271;-62
2024/01/08 07:26:02;;;;;;;4.05;3.75;;;;;;;;;;5114259;28;20215;-62
2024/01/08 07:28:28;;;;;;;3.00;2.90;;;;;;;;;;5114303;28;20613;-62
2024/01/08 07:30:56;;;;;;;3.53;3.33;;;;;;;;;;5085239;28;20627;-65
2024/01/08 07:33:23;;;;;;;3.65;3.35;;;;;;;;;;5087807;28;20752;-64
2024/01/08 07:35:49;;;;;;;3.33;3.13;;;;;;;;;;5087599;28;20219;-64
2024/01/08 07:38:16;;;;;;;3.17;3.03;;;;;;;;;;5087921;28;20204;-63
2024/01/08 07:40:42;;;;;;;3.13;2.92;;;;;;;;;;5087918;28;20261;-64
2024/01/08 07:43:09;;;;;;;2.95;2.85;;;;;;;;;;5088228;28;20740;-61
2024/01/08 07:45:35;;;;;;;3.00;2.85;;;;;;;;;;5087399;28;20630;-60
2024/01/08 07:48:02;;;;;;;2.83;2.72;;;;;;;;;;5086031;28;20269;-60
2024/01/08 07:50:29;;;;;;;3.00;2.80;;;;;;;;;;5084259;28;20204;-61
2024/01/08 07:52:55;;;;;;;3.03;2.92;;;;;;;;;;5083973;28;20215;-63
2024/01/08 07:55:22;;;;;;;3.30;3.10;;;;;;;;;;5085758;28;20216;-60
2024/01/08 07:57:48;;;;;;;3.22;3.10;;;;;;;;;;5085922;28;20519;-60
2024/01/08 08:00:15;;;;;;;3.40;3.10;;;;;;;;;;5086371;28;20216;-65
2024/01/08 08:02:41;;;;;;;3.30;3.10;;;;;;;;;;5085910;28;20207;-64
2024/01/08 08:05:08;;;;;;;3.72;3.42;;;;;;;;;;5086125;28;20232;-64
2024/01/08 08:07:36;;;;;;;3.33;3.13;;;;;;;;;;5085942;28;20594;-63
2024/01/08 08:10:02;;;;;;;3.47;3.03;;;;;;;;;;5085341;28;20207;-62
2024/01/08 08:12:28;;;;;;;3.60;3.40;;;;;;;;;;5085777;28;20208;-64
2024/01/08 08:14:58;;;;;;;3.67;3.47;;;;;;;;;;5085339;28;20272;-62
2024/01/08 08:17:24;;;;;;;2.97;2.80;;;;;;;;;;5085453;28;20219;-63
2024/01/08 08:19:51;;;;;;;3.70;3.40;;;;;;;;;;5085779;28;20261;-65
2024/01/08 08:22:18;;;;;;;4.00;3.70;;;;;;;;;;5085904;28;20235;-64
2024/01/08 08:24:47;;;;;;;3.42;3.22;;;;;;;;;;5085016;28;20227;-64
2024/01/08 08:27:13;;;;;;;3.65;3.35;;;;;;;;;;5085880;28;20204;-64
2024/01/08 08:29:41;;;;;;;3.42;3.08;;;;;;;;;;5085762;28;20208;-62
2024/01/08 08:32:08;;;;;;;3.55;3.33;;;;;;;;;;5085265;28;20208;-62
2024/01/08 08:34:34;;;;;;;3.40;3.20;;;;;;;;;;5085078;28;20203;-63
2024/01/08 08:37:01;;;;;;;3.50;3.30;;;;;;;;;;5085032;28;20265;-64
2024/01/08 08:39:28;;;;;;;3.05;2.85;;;;;;;;;;5085444;28;20272;-63
2024/01/08 08:41:55;;;;;;;3.30;3.15;;;;;;;;;;5085081;28;20717;-63
2024/01/08 08:44:22;;;;;;;3.40;3.20;;;;;;;;;;5085261;28;20710;-64
2024/01/08 08:46:48;;;;;;;3.88;3.58;;;;;;;;;;5085096;28;20223;-63
2024/01/08 08:49:16;;;;;;;3.55;3.35;;;;;;;;;;5085050;28;20247;-62
2024/01/08 08:51:42;;;;;;;3.30;3.10;;;;;;;;;;5085076;28;20211;-60
2024/01/08 08:54:09;;;;;;;3.35;3.15;;;;;;;;;;5084816;28;20215;-62
2024/01/08 08:56:36;;;;;;;3.67;3.47;;;;;;;;;;5084862;28;20227;-61
2024/01/08 08:59:03;;;;;;;3.25;3.05;;;;;;;;;;5084960;28;20212;-62
2024/01/08 09:01:29;;;;;;;3.88;3.65;;;;;;;;;;5084735;28;20711;-62
2024/01/08 09:03:55;;;;;;;3.65;3.35;;;;;;;;;;5084717;28;20211;-62
2024/01/08 09:06:23;;;;;;;3.15;3.05;;;;;;;;;;5084690;28;20293;-63
2024/01/08 09:08:49;;;;;;;4.63;3.60;;;;;;;;;;5084566;28;20294;-63
2024/01/08 09:11:15;;;;;;;3.33;3.10;;;;;;;;;;5084666;28;20207;-62
2024/01/08 09:13:43;;;;;;;4.05;3.70;;;;;;;;;;5084547;28;20211;-61
2024/01/08 09:16:10;;;;;;;3.30;3.10;;;;;;;;;;5084398;28;20223;-62
2024/01/08 09:18:36;;;;;;;3.47;3.28;;;;;;;;;;5085111;28;20215;-63
2024/01/08 09:21:02;;;;;;;3.58;3.38;;;;;;;;;;5085017;28;20223;-61
2024/01/08 09:23:29;;;;;;;3.80;3.50;;;;;;;;;;5084099;28;20616;-62
2024/01/08 09:25:55;;;;;;;3.45;3.25;;;;;;;;;;5084245;28;20277;-62
2024/01/08 09:28:21;;;;;;;3.47;3.28;;;;;;;;;;5084780;28;20253;-62
2024/01/08 09:30:50;;;;;;;3.83;3.55;;;;;;;;;;5084130;28;20203;-61
2024/01/08 09:33:16;;;;;;;3.60;3.40;;;;;;;;;;5083818;28;20208;-61
2024/01/08 09:35:42;;;;;;;3.25;3.03;;;;;;;;;;5084773;28;20257;-62
2024/01/08 09:38:09;;;;;;;3.13;2.92;;;;;;;;;;5084556;28;20211;-62
2024/01/08 09:40:36;;;;;;;3.28;3.08;;;;;;;;;;5083847;28;20211;-63
2024/01/08 09:43:06;;;;;;;3.13;3.00;;;;;;;;;;5084581;28;20273;-61
2024/01/08 09:45:32;;;;;;;3.13;3.00;;;;;;;;;;5083837;28;20304;-63
2024/01/08 09:48:00;;;;;;;4.03;3.28;;;;;;;;;;5083947;28;20211;-61
2024/01/08 09:50:27;;;;;;;3.45;3.25;;;;;;;;;;5084840;28;20265;-62
2024/01/08 09:52:53;;;;;;;2.92;2.83;;;;;;;;;;5068466;28;20680;-61
2024/01/08 09:55:20;;;;;;;3.15;2.97;;;;;;;;;;5083641;28;20865;-62
2024/01/08 09:57:46;;;;;;;3.05;2.95;;;;;;;;;;5084280;28;20680;-63
2024/01/08 10:00:13;;;;;;;3.17;3.08;;;;;;;;;;5084069;28;20211;-60
2024/01/08 10:02:40;;;;;;;3.00;2.90;;;;;;;;;;5084066;28;20319;-62
2024/01/08 10:05:08;;;;;;;3.63;3.35;;;;;;;;;;5084353;28;20254;-61
2024/01/08 10:07:35;;;;;;;7.25;3.80;;;;;;;;;;5084195;28;20699;-61
2024/01/08 10:10:01;;;;;;;3.58;3.15;;;;;;;;;;5083691;28;20238;-62
2024/01/08 10:12:28;;;;;;;4.63;2.90;;;;;;;;;;5084350;28;20212;-62
2024/01/08 10:14:55;;;;;;;3.33;3.13;;;;;;;;;;5084162;28;20778;-63
2024/01/08 10:17:21;;;;;;;8.30;3.90;;;;;;;;;;5084141;28;20207;-62
2024/01/08 10:19:48;;;;;;;3.83;3.53;;;;;;;;;;5084029;28;20296;-62
2024/01/08 10:22:15;;;;;;;3.65;3.35;;;;;;;;;;5084222;28;20203;-62
2024/01/08 10:24:43;;;;;;;49.25;8.30;;;;;;;;;;5083412;28;20214;-61
2024/01/08 10:27:09;;;;;;;3.38;3.08;;;;;;;;;;5084169;28;20233;-62
2024/01/08 10:29:36;;;;;;;11.90;4.60;;;;;;;;;;5083754;28;20732;-60
2024/01/08 10:32:02;;;;;;;3.70;3.40;;;;;;;;;;5083889;28;20223;-61
2024/01/08 10:34:29;;;;;;;3.95;3.65;;;;;;;;;;5085607;28;20220;-60
2024/01/08 10:36:56;;;;;;;3.05;2.95;;;;;;;;;;5087313;28;20223;-60
2024/01/08 10:39:24;;;;;;;13.48;4.03;;;;;;;;;;5087673;28;20963;-61
2024/01/08 10:41:51;;;;;;;11.18;4.70;;;;;;;;;;5087227;28;20264;-61
2024/01/08 10:44:17;;;;;;;7.07;4.70;;;;;;;;;;5087667;28;20207;-61
2024/01/08 10:46:49;;;;;;;5.93;3.30;;;;;;;;;;5087289;28;20562;-61
2024/01/08 10:49:19;;;;;;;3.92;3.63;;;;;;;;;;5083569;28;20261;-61
2024/01/08 10:51:47;;;;;;;3.60;3.30;;;;;;;;;;5088102;28;20214;-61
2024/01/08 10:54:14;;;;;;;4.80;3.20;;;;;;;;;;5087600;28;21008;-61
2024/01/08 10:56:42;;;;;;;18.45;4.38;;;;;;;;;;5086943;28;20269;-62
2024/01/08 10:59:09;;;;;;;4.53;3.53;;;;;;;;;;5087054;28;20230;-62
2024/01/08 11:01:36;;;;;;;3.53;3.33;;;;;;;;;;5086767;28;20203;-63
2024/01/08 11:04:03;;;;;;;2.95;2.85;;;;;;;;;;5087249;28;20207;-64
2024/01/08 11:06:30;;;;;;;3.95;3.55;;;;;;;;;;5087431;28;20322;-62
2024/01/08 11:08:57;;;;;;;3.20;3.00;;;;;;;;;;5087169;28;20257;-63
2024/01/08 11:11:23;;;;;;;3.00;2.80;;;;;;;;;;5087253;28;20257;-62
2024/01/08 11:13:50;;;;;;;3.40;3.20;;;;;;;;;;5087427;28;20672;-62
2024/01/08 11:16:20;;;;;;;3.30;3.10;;;;;;;;;;5086755;28;20272;-63
2024/01/08 11:18:46;;;;;;;3.95;3.65;;;;;;;;;;5087059;28;20212;-62
2024/01/08 11:21:13;;;;;;;4.30;3.10;;;;;;;;;;5087631;28;20208;-62
2024/01/08 11:23:40;;;;;;;3.20;3.00;;;;;;;;;;5087039;28;20729;-62
2024/01/08 11:26:10;;;;;;;3.13;2.92;;;;;;;;;;5086410;28;20230;-62
2024/01/08 11:28:37;;;;;;;3.20;3.00;;;;;;;;;;5086647;28;20223;-62
2024/01/08 11:31:18;;;;;;;2.88;2.67;;;;;;;;;;5086633;28;20212;-62
2024/01/08 11:33:51;;;;;;;3.45;3.20;;;;;;;;;;5065747;28;20227;-62
2024/01/08 11:36:23;;;;;;;3.33;3.13;;;;;;;;;;5086776;28;20223;-62
2024/01/08 11:39:00;;;;;;;3.10;3.00;;;;;;;;;;5086793;28;20702;-62
2024/01/08 11:41:26;;;;;;;3.45;3.22;;;;;;;;;;5086823;28;20261;-62
2024/01/08 11:43:53;;;;;;;2.97;2.78;;;;;;;;;;5086743;28;20208;-62
2024/01/08 11:46:20;;;;;;;3.33;3.13;;;;;;;;;;5085221;28;20223;-62
2024/01/08 11:48:48;;;;;;;3.47;3.28;;;;;;;;;;5085951;28;20212;-62
2024/01/08 11:51:14;;;;;;;3.55;3.35;;;;;;;;;;5086709;28;20219;-62
2024/01/08 11:53:42;;;;;;;3.38;3.17;;;;;;;;;;5086897;28;20239;-64
2024/01/08 11:56:08;;;;;;;3.33;3.13;;;;;;;;;;5085540;28;20255;-63
2024/01/08 11:58:34;;;;;;;3.38;3.25;;;;;;;;;;5086019;28;20208;-63
2024/01/08 12:01:14;;;;;;;3.60;3.30;;;;;;;;;;5085613;28;20237;-60
2024/01/08 12:03:41;;;;;;;3.53;3.22;;;;;;;;;;5085479;28;20668;-62
2024/01/08 12:06:08;;;;;;;3.50;3.30;;;;;;;;;;5085405;28;20257;-60
2024/01/08 12:08:35;;;;;;;3.58;3.30;;;;;;;;;;5086131;28;20215;-61
2024/01/08 12:11:02;;;;;;;3.35;3.13;;;;;;;;;;5085824;28;20207;-60
2024/01/08 12:13:28;;;;;;;3.58;3.28;;;;;;;;;;5086014;28;20204;-62
2024/01/08 12:15:54;;;;;;;3.35;3.13;;;;;;;;;;5085927;28;20220;-61
2024/01/08 12:18:20;;;;;;;3.10;2.90;;;;;;;;;;5085630;28;20211;-61
2024/01/08 12:20:46;;;;;;;3.35;3.15;;;;;;;;;;5085369;28;20277;-63
2024/01/08 12:23:14;;;;;;;3.50;3.30;;;;;;;;;;5086248;28;20211;-62
2024/01/08 12:25:40;;;;;;;3.45;3.25;;;;;;;;;;5085104;28;20223;-61
2024/01/08 12:28:08;;;;;;;2.97;2.78;;;;;;;;;;5086056;28;20735;-61
2024/01/08 12:30:34;;;;;;;4.72;3.42;;;;;;;;;;5085400;28;20241;-60
2024/01/08 12:33:01;;;;;;;3.58;3.38;;;;;;;;;;5085175;28;20208;-62
2024/01/08 12:35:28;;;;;;;3.83;3.53;;;;;;;;;;5085329;28;20227;-62
2024/01/08 12:37:55;;;;;;;3.40;3.20;;;;;;;;;;5084804;28;20212;-61
2024/01/08 12:40:23;;;;;;;3.70;3.50;;;;;;;;;;5085450;28;20207;-60
2024/01/08 12:42:49;;;;;;;3.10;2.90;;;;;;;;;;5085209;28;20211;-60
2024/01/08 12:45:15;;;;;;;3.53;3.33;;;;;;;;;;5085235;28;20689;-61
2024/01/08 12:47:42;;;;;;;4.15;3.47;;;;;;;;;;5084669;28;20301;-60
2024/01/08 12:50:08;;;;;;;3.10;3.00;;;;;;;;;;5084709;28;21111;-61
2024/01/08 12:52:35;;;;;;;3.50;3.28;;;;;;;;;;5084070;28;20353;-62
2024/01/08 12:55:01;;;;;;;4.57;3.45;;;;;;;;;;5085013;28;20260;-61
2024/01/08 12:57:30;;;;;;;3.08;2.92;;;;;;;;;;5084146;28;20208;-61
2024/01/08 12:59:56;;;;;;;6.07;3.45;;;;;;;;;;5084862;28;20243;-63
2024/01/08 13:02:25;;;;;;;3.92;3.53;;;;;;;;;;5084139;28;20218;-61
2024/01/08 13:04:52;;;;;;;3.47;3.28;;;;;;;;;;5084429;28;20204;-62
2024/01/08 13:07:18;;;;;;;4.10;3.88;;;;;;;;;;5083974;28;20550;-60
2024/01/08 13:09:45;;;;;;;4.03;3.72;;;;;;;;;;5085029;28;20235;-60
2024/01/08 13:12:11;;;;;;;3.60;3.40;;;;;;;;;;5084212;28;20678;-60
2024/01/08 13:14:39;;;;;;;3.78;3.55;;;;;;;;;;5084723;28;20230;-61
2024/01/08 13:17:05;;;;;;;3.72;3.50;;;;;;;;;;5085021;28;20255;-61
2024/01/08 13:19:32;;;;;;;3.75;3.53;;;;;;;;;;5084131;28;20208;-61
2024/01/08 13:21:58;;;;;;;4.45;3.55;;;;;;;;;;5085218;28;20210;-61
2024/01/08 13:24:26;;;;;;;7.68;3.72;;;;;;;;;;5084241;28;20211;-59
2024/01/08 13:26:52;;;;;;;3.78;3.45;;;;;;;;;;5084570;28;20233;-60
2024/01/08 13:29:18;;;;;;;5.93;3.72;;;;;;;;;;5084609;28;20688;-60
2024/01/08 13:31:46;;;;;;;4.35;3.97;;;;;;;;;;5084477;28;20703;-59
2024/01/08 13:34:12;;;;;;;5.38;4.88;;;;;;;;;;5084881;28;20677;-60
2024/01/08 13:36:39;;;;;;;4.30;4.00;;;;;;;;;;5084383;28;20591;-60
2024/01/08 13:39:05;;;;;;;3.35;3.15;;;;;;;;;;5084672;28;20207;-61
2024/01/08 13:41:34;;;;;;;3.83;3.53;;;;;;;;;;5084632;28;20596;-60
2024/01/08 13:44:01;;;;;;;3.85;3.65;;;;;;;;;;5084375;28;20415;-60
2024/01/08 13:46:27;;;;;;;3.65;3.30;;;;;;;;;;5084352;28;20230;-59
2024/01/08 13:48:55;;;;;;;3.30;3.10;;;;;;;;;;5084437;28;20218;-60
2024/01/08 13:51:21;;;;;;;3.38;3.17;;;;;;;;;;5084507;28;20218;-61
2024/01/08 13:53:47;;;;;;;3.92;3.63;;;;;;;;;;5084437;28;20211;-60
2024/01/08 13:56:14;;;;;;;3.63;3.42;;;;;;;;;;5084036;28;20227;-61
2024/01/08 13:58:40;;;;;;;3.42;3.17;;;;;;;;;;5084782;28;20265;-61
2024/01/08 14:01:08;;;;;;;3.80;3.50;;;;;;;;;;5084346;28;20235;-58
2024/01/08 14:03:34;;;;;;;3.65;3.38;;;;;;;;;;5084119;28;20207;-60
2024/01/08 14:06:02;;;;;;;4.00;3.63;;;;;;;;;;5083519;28;20239;-60
2024/01/08 14:08:28;;;;;;;4.30;4.00;;;;;;;;;;5084088;28;20207;-59
2024/01/08 14:10:54;;;;;;;3.92;3.63;;;;;;;;;;5087727;28;20207;-58
2024/01/08 14:13:21;;;;;;;4.47;4.07;;;;;;;;;;5088517;28;20215;-61
2024/01/08 14:15:47;;;;;;;3.88;3.67;;;;;;;;;;5088445;28;20235;-61
2024/01/08 14:18:13;;;;;;;3.85;3.55;;;;;;;;;;5088261;28;20246;-60
2024/01/08 14:20:39;;;;;;;4.70;3.83;;;;;;;;;;5087826;28;20207;-63
2024/01/08 14:23:07;;;;;;;15.13;4.70;;;;;;;;;;5088356;28;20211;-59
2024/01/08 14:25:34;;;;;;;4.80;4.40;;;;;;;;;;5087356;28;20693;-61
2024/01/08 14:28:00;;;;;;;4.93;3.88;;;;;;;;;;5088327;28;20224;-61
2024/01/08 14:30:26;;;;;;;104.43;9.20;;;;;;;;;;5088237;28;20272;-60
2024/01/08 14:32:53;;;;;;;6.07;3.78;;;;;;;;;;5087524;28;20625;-61
2024/01/08 14:35:19;;;;;;;4.35;3.65;;;;;;;;;;5087525;28;20246;-61
2024/01/08 14:37:47;;;;;;;4.00;3.63;;;;;;;;;;5087358;28;20207;-60
2024/01/08 14:40:19;;;;;;;3.95;3.55;;;;;;;;;;5087538;28;20627;-60